createdAt,value
2018-02-16T00:00:14.145Z,20.97
2018-02-16T00:00:45.777Z,20.95
2018-02-16T00:01:17.405Z,20.97
2018-02-16T00:01:49.034Z,20.95
2018-02-16T00:02:20.659Z,20.95
2018-02-16T00:02:52.286Z,20.95
2018-02-16T00:03:23.958Z,20.93
2018-02-16T00:03:55.586Z,20.95
2018-02-16T00:04:27.214Z,20.94
2018-02-16T00:04:58.889Z,20.93
2018-02-16T00:05:30.518Z,20.93
2018-02-16T00:06:02.154Z,20.93
2018-02-16T00:06:33.786Z,20.94
2018-02-16T00:07:05.414Z,20.96
2018-02-16T00:07:37.037Z,20.97
2018-02-16T00:08:08.666Z,20.97
2018-02-16T00:08:40.292Z,20.96
2018-02-16T00:09:11.925Z,20.96
2018-02-16T00:09:43.550Z,20.93
2018-02-16T00:10:15.225Z,20.95
2018-02-16T00:10:46.854Z,20.95
2018-02-16T00:11:18.481Z,20.94
2018-02-16T00:11:50.110Z,20.94
2018-02-16T00:12:21.741Z,20.92
2018-02-16T00:12:53.374Z,20.93
2018-02-16T00:13:25.001Z,20.94
2018-02-16T00:13:56.622Z,20.94
2018-02-16T00:14:28.253Z,20.94
2018-02-16T00:14:59.880Z,20.93
2018-02-16T00:15:31.545Z,20.93
2018-02-16T00:16:03.210Z,20.92
2018-02-16T00:16:34.838Z,20.92
2018-02-16T00:17:06.470Z,20.93
2018-02-16T00:17:38.097Z,20.93
2018-02-16T00:18:09.726Z,20.93
2018-02-16T00:18:41.358Z,20.93
2018-02-16T00:19:12.994Z,20.91
2018-02-16T00:19:44.625Z,20.90
2018-02-16T00:20:16.290Z,20.91
2018-02-16T00:20:47.958Z,20.90
2018-02-16T00:21:19.585Z,20.89
2018-02-16T00:21:51.205Z,20.87
2018-02-16T00:22:22.838Z,20.88
2018-02-16T00:22:54.514Z,20.88
2018-02-16T00:23:26.141Z,20.89
2018-02-16T00:23:57.774Z,20.90
2018-02-16T00:24:29.398Z,20.90
2018-02-16T00:25:01.028Z,20.90
2018-02-16T00:25:32.705Z,20.90
2018-02-16T00:26:04.326Z,20.90
2018-02-16T00:26:35.954Z,20.91
2018-02-16T00:27:07.581Z,20.90
2018-02-16T00:27:39.201Z,20.91
2018-02-16T00:28:10.826Z,20.90
2018-02-16T00:28:42.453Z,20.89
2018-02-16T00:29:14.081Z,20.88
2018-02-16T00:29:45.713Z,20.88
2018-02-16T00:30:17.348Z,20.89
2018-02-16T00:30:49.027Z,20.88
2018-02-16T00:31:20.650Z,20.88
2018-02-16T00:31:52.274Z,20.86
2018-02-16T00:32:23.904Z,20.85
2018-02-16T00:32:55.529Z,20.87
2018-02-16T00:33:27.157Z,20.87
2018-02-16T00:33:58.785Z,20.88
2018-02-16T00:34:30.414Z,20.88
2018-02-16T00:35:02.041Z,20.87
2018-02-16T00:35:33.717Z,20.87
2018-02-16T00:36:05.341Z,20.86
2018-02-16T00:36:36.970Z,20.87
2018-02-16T00:37:08.597Z,20.88
2018-02-16T00:37:40.222Z,20.88
2018-02-16T00:38:11.894Z,20.87
2018-02-16T00:38:43.513Z,20.87
2018-02-16T00:39:15.143Z,20.86
2018-02-16T00:39:46.776Z,20.86
2018-02-16T00:40:18.401Z,20.85
2018-02-16T00:40:50.070Z,20.85
2018-02-16T00:41:21.708Z,20.85
2018-02-16T00:41:53.341Z,20.85
2018-02-16T00:42:24.969Z,20.86
2018-02-16T00:42:56.598Z,20.85
2018-02-16T00:43:28.228Z,20.90
2018-02-16T00:43:59.861Z,20.93
2018-02-16T00:44:31.489Z,20.91
2018-02-16T00:45:03.117Z,20.90
2018-02-16T00:45:34.790Z,20.92
2018-02-16T00:46:06.413Z,20.90
2018-02-16T00:46:38.033Z,20.90
2018-02-16T00:47:09.662Z,20.91
2018-02-16T00:47:41.286Z,20.89
2018-02-16T00:48:12.961Z,20.90
2018-02-16T00:48:44.609Z,20.91
2018-02-16T00:49:16.238Z,20.89
2018-02-16T00:49:47.866Z,20.88
2018-02-16T00:50:19.490Z,20.87
2018-02-16T00:50:51.122Z,20.87
2018-02-16T00:51:22.748Z,20.86
2018-02-16T00:51:54.378Z,20.85
2018-02-16T00:52:26.001Z,20.85
2018-02-16T00:52:57.629Z,20.85
2018-02-16T00:53:29.262Z,20.85
2018-02-16T00:54:00.890Z,20.88
2018-02-16T00:54:32.522Z,20.86
2018-02-16T00:55:04.185Z,20.86
2018-02-16T00:55:35.814Z,20.85
2018-02-16T00:56:07.439Z,20.88
2018-02-16T00:56:39.070Z,20.88
2018-02-16T00:57:10.697Z,20.90
2018-02-16T00:57:42.334Z,20.93
2018-02-16T00:58:13.966Z,20.93
2018-02-16T00:58:45.589Z,20.90
2018-02-16T00:59:17.217Z,20.90
2018-02-16T00:59:48.939Z,20.91
2018-02-16T01:00:20.554Z,20.91
2018-02-16T01:00:52.182Z,20.91
2018-02-16T01:01:23.805Z,20.92
2018-02-16T01:01:55.435Z,20.91
2018-02-16T01:02:27.066Z,20.91
2018-02-16T01:02:58.693Z,20.90
2018-02-16T01:03:30.313Z,20.90
2018-02-16T01:04:01.934Z,20.89
2018-02-16T01:04:33.562Z,20.89
2018-02-16T01:05:05.233Z,20.87
2018-02-16T01:05:36.865Z,20.89
2018-02-16T01:06:08.497Z,20.88
2018-02-16T01:06:41.141Z,20.90
2018-02-16T01:07:12.763Z,20.91
2018-02-16T01:07:44.388Z,20.93
2018-02-16T01:08:16.016Z,20.92
2018-02-16T01:08:47.645Z,20.93
2018-02-16T01:09:19.269Z,20.91
2018-02-16T01:09:50.898Z,20.90
2018-02-16T01:10:22.570Z,20.89
2018-02-16T01:10:54.202Z,20.87
2018-02-16T01:11:25.830Z,20.89
2018-02-16T01:11:57.453Z,20.90
2018-02-16T01:12:29.073Z,20.88
2018-02-16T01:13:00.695Z,20.87
2018-02-16T01:13:32.329Z,20.89
2018-02-16T01:14:03.958Z,20.87
2018-02-16T01:14:35.613Z,20.86
2018-02-16T01:15:07.277Z,20.87
2018-02-16T01:15:38.899Z,20.88
2018-02-16T01:16:10.533Z,20.87
2018-02-16T01:16:42.161Z,20.87
2018-02-16T01:17:13.805Z,20.88
2018-02-16T01:17:45.434Z,20.87
2018-02-16T01:18:17.062Z,20.88
2018-02-16T01:18:48.689Z,20.88
2018-02-16T01:19:20.322Z,20.87
2018-02-16T01:19:51.945Z,20.89
2018-02-16T01:20:23.573Z,20.88
2018-02-16T01:20:55.237Z,20.86
2018-02-16T01:21:26.858Z,20.85
2018-02-16T01:21:58.481Z,20.88
2018-02-16T01:22:30.110Z,20.86
2018-02-16T01:23:01.782Z,20.87
2018-02-16T01:23:33.409Z,20.84
2018-02-16T01:24:05.037Z,20.85
2018-02-16T01:24:36.669Z,20.86
2018-02-16T01:25:08.301Z,20.86
2018-02-16T01:25:39.921Z,20.85
2018-02-16T01:26:11.545Z,20.83
2018-02-16T01:26:43.174Z,20.83
2018-02-16T01:27:14.803Z,20.86
2018-02-16T01:27:46.430Z,20.86
2018-02-16T01:28:18.106Z,20.86
2018-02-16T01:28:49.733Z,20.84
2018-02-16T01:29:21.362Z,20.88
2018-02-16T01:29:52.990Z,20.88
2018-02-16T01:30:24.613Z,20.84
2018-02-16T01:30:56.242Z,20.86
2018-02-16T01:31:27.865Z,20.85
2018-02-16T01:31:59.494Z,20.85
2018-02-16T01:32:31.117Z,20.83
2018-02-16T01:33:02.742Z,20.87
2018-02-16T01:33:34.414Z,20.88
2018-02-16T01:34:06.077Z,20.86
2018-02-16T01:34:37.702Z,20.85
2018-02-16T01:35:09.330Z,20.84
2018-02-16T01:35:40.957Z,20.85
2018-02-16T01:36:12.577Z,20.84
2018-02-16T01:36:44.209Z,20.78
2018-02-16T01:37:15.893Z,20.82
2018-02-16T01:37:47.513Z,20.80
2018-02-16T01:38:19.177Z,20.82
2018-02-16T01:38:50.804Z,20.83
2018-02-16T01:39:22.438Z,20.81
2018-02-16T01:39:54.069Z,20.83
2018-02-16T01:40:25.698Z,20.83
2018-02-16T01:40:57.330Z,20.83
2018-02-16T01:41:28.958Z,20.81
2018-02-16T01:42:00.634Z,20.81
2018-02-16T01:42:32.257Z,20.81
2018-02-16T01:43:03.885Z,20.84
2018-02-16T01:43:35.509Z,20.81
2018-02-16T01:44:07.133Z,20.82
2018-02-16T01:44:38.767Z,20.81
2018-02-16T01:45:10.389Z,20.83
2018-02-16T01:45:42.020Z,20.83
2018-02-16T01:46:13.653Z,20.82
2018-02-16T01:46:45.314Z,20.83
2018-02-16T01:47:16.985Z,20.84
2018-02-16T01:47:48.614Z,20.84
2018-02-16T01:48:21.254Z,20.85
2018-02-16T01:48:52.878Z,20.85
2018-02-16T01:49:24.505Z,20.85
2018-02-16T01:49:56.126Z,20.84
2018-02-16T01:50:27.750Z,20.84
2018-02-16T01:50:59.373Z,20.85
2018-02-16T01:51:31.002Z,20.86
2018-02-16T01:52:02.669Z,20.89
2018-02-16T01:52:34.293Z,20.94
2018-02-16T01:53:05.919Z,20.98
2018-02-16T01:53:37.586Z,20.99
2018-02-16T01:54:09.214Z,21.01
2018-02-16T01:54:40.850Z,21.02
2018-02-16T01:55:12.473Z,21.01
2018-02-16T01:55:44.093Z,21.01
2018-02-16T01:56:15.717Z,20.98
2018-02-16T01:56:47.350Z,21.00
2018-02-16T01:57:18.981Z,21.00
2018-02-16T01:57:50.654Z,21.05
2018-02-16T01:58:22.277Z,21.03
2018-02-16T01:58:53.901Z,21.02
2018-02-16T01:59:25.529Z,20.95
2018-02-16T01:59:57.158Z,20.90
2018-02-16T02:00:28.838Z,20.85
2018-02-16T02:01:00.464Z,20.82
2018-02-16T02:01:32.085Z,20.82
2018-02-16T02:02:03.721Z,20.80
2018-02-16T02:02:35.350Z,20.78
2018-02-16T02:03:06.974Z,20.77
2018-02-16T02:03:38.598Z,20.77
2018-02-16T02:04:10.229Z,20.77
2018-02-16T02:04:41.849Z,20.78
2018-02-16T02:05:13.477Z,20.79
2018-02-16T02:05:45.149Z,20.79
2018-02-16T02:06:16.780Z,20.80
2018-02-16T02:06:48.454Z,20.80
2018-02-16T02:07:20.085Z,20.81
2018-02-16T02:07:51.741Z,20.80
2018-02-16T02:08:23.369Z,20.79
2018-02-16T02:08:54.998Z,20.79
2018-02-16T02:09:26.626Z,20.78
2018-02-16T02:09:58.249Z,20.77
2018-02-16T02:10:29.878Z,20.80
2018-02-16T02:11:01.506Z,20.76
2018-02-16T02:11:33.129Z,20.76
2018-02-16T02:12:04.811Z,20.76
2018-02-16T02:12:36.437Z,20.77
2018-02-16T02:13:08.057Z,20.79
2018-02-16T02:13:39.686Z,20.78
2018-02-16T02:14:11.310Z,20.80
2018-02-16T02:14:42.934Z,20.79
2018-02-16T02:15:14.565Z,20.79
2018-02-16T02:15:46.195Z,20.78
2018-02-16T02:16:17.821Z,20.78
2018-02-16T02:16:49.449Z,20.79
2018-02-16T02:17:21.129Z,20.78
2018-02-16T02:17:52.758Z,20.79
2018-02-16T02:18:24.386Z,20.78
2018-02-16T02:18:56.010Z,20.79
2018-02-16T02:19:27.629Z,20.79
2018-02-16T02:19:59.257Z,20.79
2018-02-16T02:20:30.885Z,20.78
2018-02-16T02:21:02.514Z,20.78
2018-02-16T02:21:34.141Z,20.79
2018-02-16T02:22:05.778Z,20.78
2018-02-16T02:22:37.450Z,20.79
2018-02-16T02:23:09.074Z,20.80
2018-02-16T02:23:40.701Z,20.80
2018-02-16T02:24:12.334Z,20.79
2018-02-16T02:24:43.962Z,20.78
2018-02-16T02:25:15.638Z,20.79
2018-02-16T02:25:47.261Z,20.79
2018-02-16T02:26:18.890Z,20.77
2018-02-16T02:26:50.513Z,20.73
2018-02-16T02:27:22.133Z,20.78
2018-02-16T02:27:53.814Z,20.78
2018-02-16T02:28:25.461Z,20.77
2018-02-16T02:28:57.091Z,20.77
2018-02-16T02:29:28.714Z,20.76
2018-02-16T02:30:00.346Z,20.77
2018-02-16T02:30:31.970Z,20.76
2018-02-16T02:31:03.593Z,20.77
2018-02-16T02:31:35.229Z,20.76
2018-02-16T02:32:06.856Z,20.77
2018-02-16T02:32:38.485Z,20.79
2018-02-16T02:33:10.166Z,20.79
2018-02-16T02:33:41.786Z,20.80
2018-02-16T02:34:13.414Z,20.80
2018-02-16T02:34:45.042Z,20.78
2018-02-16T02:35:16.670Z,20.76
2018-02-16T02:35:48.298Z,20.77
2018-02-16T02:36:19.922Z,20.78
2018-02-16T02:36:51.550Z,20.76
2018-02-16T02:37:23.185Z,20.77
2018-02-16T02:37:54.813Z,20.78
2018-02-16T02:38:26.487Z,20.76
2018-02-16T02:38:58.119Z,20.76
2018-02-16T02:39:29.746Z,20.76
2018-02-16T02:40:01.434Z,20.75
2018-02-16T02:40:33.057Z,20.75
2018-02-16T02:41:04.682Z,20.75
2018-02-16T02:41:36.310Z,20.76
2018-02-16T02:42:07.938Z,20.75
2018-02-16T02:42:39.570Z,20.75
2018-02-16T02:43:11.194Z,20.76
2018-02-16T02:43:42.821Z,20.75
2018-02-16T02:44:14.445Z,20.77
2018-02-16T02:44:46.125Z,20.76
2018-02-16T02:45:17.759Z,20.72
2018-02-16T02:45:49.382Z,20.72
2018-02-16T02:46:21.046Z,20.72
2018-02-16T02:46:52.677Z,20.72
2018-02-16T02:47:24.301Z,20.73
2018-02-16T02:47:55.934Z,20.72
2018-02-16T02:48:27.561Z,20.77
2018-02-16T02:48:59.193Z,20.79
2018-02-16T02:49:30.818Z,20.80
2018-02-16T02:50:02.492Z,20.79
2018-02-16T02:50:34.123Z,20.80
2018-02-16T02:51:05.818Z,20.81
2018-02-16T02:51:37.446Z,20.81
2018-02-16T02:52:09.074Z,20.81
2018-02-16T02:52:40.706Z,20.82
2018-02-16T02:53:12.334Z,20.82
2018-02-16T02:53:43.959Z,20.81
2018-02-16T02:54:15.581Z,20.82
2018-02-16T02:54:47.210Z,20.82
2018-02-16T02:55:18.840Z,20.80
2018-02-16T02:55:50.470Z,20.82
2018-02-16T02:56:22.142Z,20.82
2018-02-16T02:56:53.774Z,20.81
2018-02-16T02:57:25.414Z,20.82
2018-02-16T02:57:57.066Z,20.81
2018-02-16T02:58:28.689Z,20.83
2018-02-16T02:59:00.310Z,20.82
2018-02-16T02:59:31.934Z,20.80
2018-02-16T03:00:03.561Z,20.79
2018-02-16T03:00:35.196Z,20.80
2018-02-16T03:01:06.825Z,20.77
2018-02-16T03:01:38.506Z,20.77
2018-02-16T03:02:10.135Z,20.77
2018-02-16T03:02:41.762Z,20.77
2018-02-16T03:03:13.387Z,20.79
2018-02-16T03:03:45.010Z,20.81
2018-02-16T03:04:16.638Z,20.82
2018-02-16T03:04:48.297Z,20.83
2018-02-16T03:05:19.925Z,20.84
2018-02-16T03:05:51.546Z,20.84
2018-02-16T03:06:23.165Z,20.85
2018-02-16T03:06:54.839Z,20.85
2018-02-16T03:07:26.528Z,20.81
2018-02-16T03:07:58.162Z,20.80
2018-02-16T03:08:29.789Z,20.80
2018-02-16T03:09:01.409Z,20.78
2018-02-16T03:09:33.038Z,20.77
2018-02-16T03:10:04.658Z,20.75
2018-02-16T03:10:36.286Z,20.76
2018-02-16T03:11:07.910Z,20.76
2018-02-16T03:11:39.534Z,20.74
2018-02-16T03:12:11.166Z,20.73
2018-02-16T03:12:42.793Z,20.72
2018-02-16T03:13:14.474Z,20.72
2018-02-16T03:13:46.142Z,20.71
2018-02-16T03:14:17.822Z,20.71
2018-02-16T03:14:49.442Z,20.72
2018-02-16T03:15:21.065Z,20.71
2018-02-16T03:15:52.689Z,20.72
2018-02-16T03:16:24.309Z,20.73
2018-02-16T03:16:55.933Z,20.70
2018-02-16T03:17:27.553Z,20.68
2018-02-16T03:17:59.174Z,20.66
2018-02-16T03:18:30.797Z,20.69
2018-02-16T03:19:02.417Z,20.68
2018-02-16T03:19:34.093Z,20.69
2018-02-16T03:20:05.725Z,20.71
2018-02-16T03:20:37.350Z,20.68
2018-02-16T03:21:08.973Z,20.64
2018-02-16T03:21:40.593Z,20.67
2018-02-16T03:22:12.217Z,20.68
2018-02-16T03:22:43.838Z,20.66
2018-02-16T03:23:15.468Z,20.65
2018-02-16T03:23:47.097Z,20.64
2018-02-16T03:24:18.722Z,20.62
2018-02-16T03:24:50.389Z,20.65
2018-02-16T03:25:22.017Z,20.63
2018-02-16T03:25:53.645Z,20.61
2018-02-16T03:26:25.275Z,20.63
2018-02-16T03:26:56.901Z,20.63
2018-02-16T03:27:28.570Z,20.61
2018-02-16T03:28:00.198Z,20.61
2018-02-16T03:28:31.825Z,20.61
2018-02-16T03:29:03.450Z,20.63
2018-02-16T03:29:35.073Z,20.65
2018-02-16T03:30:06.756Z,20.63
2018-02-16T03:30:38.385Z,20.62
2018-02-16T03:31:10.011Z,20.66
2018-02-16T03:31:41.637Z,20.66
2018-02-16T03:32:13.262Z,20.66
2018-02-16T03:32:44.891Z,20.67
2018-02-16T03:33:16.513Z,20.68
2018-02-16T03:33:48.141Z,20.70
2018-02-16T03:34:19.814Z,20.68
2018-02-16T03:34:51.442Z,20.65
2018-02-16T03:35:23.122Z,20.65
2018-02-16T03:35:54.757Z,20.65
2018-02-16T03:36:26.386Z,20.64
2018-02-16T03:36:58.009Z,20.65
2018-02-16T03:37:29.637Z,20.65
2018-02-16T03:38:01.270Z,20.67
2018-02-16T03:38:32.897Z,20.68
2018-02-16T03:39:04.517Z,20.68
2018-02-16T03:39:36.138Z,20.68
2018-02-16T03:40:07.770Z,20.69
2018-02-16T03:40:39.441Z,20.72
2018-02-16T03:41:11.070Z,20.82
2018-02-16T03:41:42.698Z,20.87
2018-02-16T03:42:14.330Z,20.93
2018-02-16T03:42:45.958Z,20.93
2018-02-16T03:43:17.581Z,20.86
2018-02-16T03:43:49.209Z,20.79
2018-02-16T03:44:20.833Z,20.70
2018-02-16T03:44:52.454Z,20.61
2018-02-16T03:45:24.078Z,20.53
2018-02-16T03:45:55.746Z,20.46
2018-02-16T03:46:27.382Z,20.41
2018-02-16T03:46:59.018Z,20.35
2018-02-16T03:47:30.648Z,20.33
2018-02-16T03:48:02.272Z,20.30
2018-02-16T03:48:33.898Z,20.27
2018-02-16T03:49:05.521Z,20.23
2018-02-16T03:49:37.141Z,20.21
2018-02-16T03:50:08.762Z,20.20
2018-02-16T03:50:40.425Z,20.19
2018-02-16T03:51:12.084Z,20.19
2018-02-16T03:51:43.722Z,20.18
2018-02-16T03:52:15.354Z,20.19
2018-02-16T03:52:46.983Z,20.27
2018-02-16T03:53:18.618Z,20.36
2018-02-16T03:53:50.281Z,20.46
2018-02-16T03:54:21.906Z,20.55
2018-02-16T03:54:53.582Z,20.64
2018-02-16T03:55:25.214Z,20.72
2018-02-16T03:55:56.842Z,20.77
2018-02-16T03:56:28.474Z,20.84
2018-02-16T03:57:00.146Z,20.85
2018-02-16T03:57:31.769Z,20.92
2018-02-16T03:58:03.399Z,20.93
2018-02-16T03:58:35.030Z,20.86
2018-02-16T03:59:06.654Z,20.84
2018-02-16T03:59:38.277Z,20.78
2018-02-16T04:00:09.900Z,20.72
2018-02-16T04:00:41.582Z,20.67
2018-02-16T04:01:13.209Z,20.62
2018-02-16T04:01:44.838Z,20.58
2018-02-16T04:02:16.462Z,20.56
2018-02-16T04:02:48.086Z,20.55
2018-02-16T04:03:19.713Z,20.53
2018-02-16T04:03:51.354Z,20.52
2018-02-16T04:04:22.981Z,20.53
2018-02-16T04:04:54.605Z,20.53
2018-02-16T04:05:26.229Z,20.53
2018-02-16T04:05:57.857Z,20.54
2018-02-16T04:06:29.482Z,20.55
2018-02-16T04:07:01.105Z,20.54
2018-02-16T04:07:32.733Z,20.53
2018-02-16T04:08:04.353Z,20.53
2018-02-16T04:08:35.978Z,20.55
2018-02-16T04:09:07.641Z,20.54
2018-02-16T04:09:39.261Z,20.55
2018-02-16T04:10:10.890Z,20.56
2018-02-16T04:10:42.513Z,20.56
2018-02-16T04:11:14.137Z,20.55
2018-02-16T04:11:45.757Z,20.54
2018-02-16T04:12:17.429Z,20.52
2018-02-16T04:12:49.060Z,20.51
2018-02-16T04:13:20.689Z,20.52
2018-02-16T04:13:52.309Z,20.53
2018-02-16T04:14:23.998Z,20.51
2018-02-16T04:14:55.621Z,20.50
2018-02-16T04:15:27.241Z,20.53
2018-02-16T04:15:58.866Z,20.52
2018-02-16T04:16:30.493Z,20.54
2018-02-16T04:17:02.125Z,20.53
2018-02-16T04:17:33.762Z,20.53
2018-02-16T04:18:05.390Z,20.54
2018-02-16T04:18:37.022Z,20.54
2018-02-16T04:19:08.652Z,20.55
2018-02-16T04:19:40.322Z,20.55
2018-02-16T04:20:11.945Z,20.55
2018-02-16T04:20:43.574Z,20.54
2018-02-16T04:21:15.206Z,20.54
2018-02-16T04:21:46.836Z,20.57
2018-02-16T04:22:18.457Z,20.56
2018-02-16T04:22:50.086Z,20.57
2018-02-16T04:23:21.758Z,20.55
2018-02-16T04:23:53.381Z,20.54
2018-02-16T04:24:25.017Z,20.56
2018-02-16T04:24:56.689Z,20.55
2018-02-16T04:25:28.313Z,20.55
2018-02-16T04:25:59.933Z,20.55
2018-02-16T04:26:31.562Z,20.54
2018-02-16T04:27:03.189Z,20.56
2018-02-16T04:27:34.813Z,20.56
2018-02-16T04:28:06.438Z,20.55
2018-02-16T04:28:38.074Z,20.54
2018-02-16T04:29:09.706Z,20.54
2018-02-16T04:29:41.377Z,20.54
2018-02-16T04:30:13.057Z,20.53
2018-02-16T04:30:44.689Z,20.55
2018-02-16T04:31:16.310Z,20.54
2018-02-16T04:31:47.933Z,20.53
2018-02-16T04:32:19.553Z,20.55
2018-02-16T04:32:51.173Z,20.54
2018-02-16T04:33:22.793Z,20.55
2018-02-16T04:33:54.413Z,20.54
2018-02-16T04:34:26.042Z,20.55
2018-02-16T04:34:57.669Z,20.55
2018-02-16T04:35:29.293Z,20.55
2018-02-16T04:36:00.922Z,20.53
2018-02-16T04:36:32.554Z,20.52
2018-02-16T04:37:04.186Z,20.51
2018-02-16T04:37:35.822Z,20.51
2018-02-16T04:38:07.450Z,20.52
2018-02-16T04:38:39.074Z,20.51
2018-02-16T04:39:10.702Z,20.51
2018-02-16T04:39:42.374Z,20.51
2018-02-16T04:40:14.006Z,20.50
2018-02-16T04:40:45.634Z,20.50
2018-02-16T04:41:17.309Z,20.49
2018-02-16T04:41:48.933Z,20.49
2018-02-16T04:42:20.553Z,20.49
2018-02-16T04:42:52.178Z,20.49
2018-02-16T04:43:23.802Z,20.48
2018-02-16T04:43:55.425Z,20.50
2018-02-16T04:44:27.049Z,20.51
2018-02-16T04:44:58.717Z,20.51
2018-02-16T04:45:30.346Z,20.51
2018-02-16T04:46:01.978Z,20.49
2018-02-16T04:46:33.605Z,20.50
2018-02-16T04:47:05.277Z,20.43
2018-02-16T04:47:36.899Z,20.49
2018-02-16T04:48:08.521Z,20.49
2018-02-16T04:48:40.153Z,20.49
2018-02-16T04:49:11.784Z,20.47
2018-02-16T04:49:43.414Z,20.49
2018-02-16T04:50:15.046Z,20.48
2018-02-16T04:50:46.669Z,20.46
2018-02-16T04:51:18.294Z,20.48
2018-02-16T04:51:49.927Z,20.48
2018-02-16T04:52:21.603Z,20.48
2018-02-16T04:52:53.229Z,20.48
2018-02-16T04:53:24.852Z,20.48
2018-02-16T04:53:56.495Z,20.47
2018-02-16T04:54:28.121Z,20.50
2018-02-16T04:54:59.740Z,20.50
2018-02-16T04:55:31.360Z,20.48
2018-02-16T04:56:03.030Z,20.47
2018-02-16T04:56:34.658Z,20.45
2018-02-16T04:57:06.281Z,20.47
2018-02-16T04:57:37.901Z,20.48
2018-02-16T04:58:09.525Z,20.47
2018-02-16T04:58:41.149Z,20.46
2018-02-16T04:59:12.778Z,20.46
2018-02-16T04:59:44.409Z,20.46
2018-02-16T05:00:16.074Z,20.46
2018-02-16T05:00:47.697Z,20.44
2018-02-16T05:01:19.366Z,20.44
2018-02-16T05:01:50.993Z,20.43
2018-02-16T05:02:22.621Z,20.42
2018-02-16T05:02:54.246Z,20.43
2018-02-16T05:03:25.874Z,20.41
2018-02-16T05:03:57.502Z,20.40
2018-02-16T05:04:29.136Z,20.39
2018-02-16T05:05:00.765Z,20.39
2018-02-16T05:05:32.429Z,20.38
2018-02-16T05:06:04.058Z,20.36
2018-02-16T05:06:35.686Z,20.36
2018-02-16T05:07:07.314Z,20.34
2018-02-16T05:07:38.942Z,20.34
2018-02-16T05:08:10.574Z,20.31
2018-02-16T05:08:42.201Z,20.29
2018-02-16T05:09:13.826Z,20.28
2018-02-16T05:09:45.453Z,20.26
2018-02-16T05:10:17.122Z,20.25
2018-02-16T05:10:48.797Z,20.22
2018-02-16T05:11:20.418Z,20.20
2018-02-16T05:11:52.046Z,20.20
2018-02-16T05:12:23.670Z,20.21
2018-02-16T05:12:55.301Z,20.20
2018-02-16T05:13:26.926Z,20.20
2018-02-16T05:13:58.590Z,20.18
2018-02-16T05:14:30.216Z,20.16
2018-02-16T05:15:01.909Z,20.16
2018-02-16T05:15:33.533Z,20.13
2018-02-16T05:16:05.161Z,20.12
2018-02-16T05:16:36.790Z,20.13
2018-02-16T05:17:08.417Z,20.13
2018-02-16T05:17:40.038Z,20.10
2018-02-16T05:18:11.661Z,20.09
2018-02-16T05:18:43.285Z,20.09
2018-02-16T05:19:14.957Z,20.10
2018-02-16T05:19:46.582Z,20.07
2018-02-16T05:20:18.210Z,20.07
2018-02-16T05:20:49.833Z,20.05
2018-02-16T05:21:21.460Z,20.06
2018-02-16T05:21:53.090Z,20.06
2018-02-16T05:22:24.714Z,20.05
2018-02-16T05:22:56.342Z,20.03
2018-02-16T05:23:27.973Z,20.03
2018-02-16T05:23:59.597Z,20.04
2018-02-16T05:24:31.229Z,20.02
2018-02-16T05:25:02.862Z,20.03
2018-02-16T05:25:34.489Z,20.05
2018-02-16T05:26:06.109Z,20.05
2018-02-16T05:26:37.737Z,20.06
2018-02-16T05:27:09.358Z,20.07
2018-02-16T05:27:40.982Z,20.07
2018-02-16T05:28:12.601Z,20.09
2018-02-16T05:28:44.221Z,20.09
2018-02-16T05:29:15.845Z,20.10
2018-02-16T05:29:47.522Z,20.11
2018-02-16T05:30:19.186Z,20.13
2018-02-16T05:30:50.814Z,20.12
2018-02-16T05:31:22.442Z,20.15
2018-02-16T05:31:54.070Z,20.14
2018-02-16T05:32:25.718Z,20.14
2018-02-16T05:32:57.351Z,20.19
2018-02-16T05:33:28.981Z,20.19
2018-02-16T05:34:00.617Z,20.19
2018-02-16T05:34:32.250Z,20.19
2018-02-16T05:35:03.938Z,20.19
2018-02-16T05:35:35.561Z,20.20
2018-02-16T05:36:07.234Z,20.20
2018-02-16T05:36:38.837Z,20.20
2018-02-16T05:37:10.461Z,20.20
2018-02-16T05:37:42.082Z,20.20
2018-02-16T05:38:13.706Z,20.22
2018-02-16T05:38:45.329Z,20.23
2018-02-16T05:39:16.958Z,20.23
2018-02-16T05:39:48.580Z,20.23
2018-02-16T05:40:20.240Z,20.24
2018-02-16T05:40:51.909Z,20.23
2018-02-16T05:41:23.533Z,20.24
2018-02-16T05:41:55.162Z,20.23
2018-02-16T05:42:26.790Z,20.25
2018-02-16T05:42:58.415Z,20.24
2018-02-16T05:43:30.047Z,20.25
2018-02-16T05:44:01.693Z,20.24
2018-02-16T05:44:33.365Z,20.24
2018-02-16T05:45:04.992Z,20.23
2018-02-16T05:45:36.617Z,20.25
2018-02-16T05:46:08.241Z,20.25
2018-02-16T05:46:39.874Z,20.28
2018-02-16T05:47:11.501Z,20.30
2018-02-16T05:47:43.121Z,20.29
2018-02-16T05:48:14.813Z,20.30
2018-02-16T05:48:46.438Z,20.30
2018-02-16T05:49:18.070Z,20.31
2018-02-16T05:49:49.702Z,20.32
2018-02-16T05:50:21.330Z,20.34
2018-02-16T05:50:52.957Z,20.33
2018-02-16T05:51:24.590Z,20.33
2018-02-16T05:51:56.218Z,20.34
2018-02-16T05:52:27.850Z,20.34
2018-02-16T05:52:59.481Z,20.35
2018-02-16T05:53:31.150Z,20.37
2018-02-16T05:54:02.784Z,20.37
2018-02-16T05:54:34.411Z,20.38
2018-02-16T05:55:06.043Z,20.38
2018-02-16T05:55:37.665Z,20.36
2018-02-16T05:56:09.295Z,20.38
2018-02-16T05:56:40.921Z,20.38
2018-02-16T05:57:12.551Z,20.44
2018-02-16T05:57:44.217Z,20.43
2018-02-16T05:58:15.842Z,20.43
2018-02-16T05:58:47.474Z,20.43
2018-02-16T05:59:19.101Z,20.44
2018-02-16T05:59:50.726Z,20.43
2018-02-16T06:00:22.354Z,20.41
2018-02-16T06:00:54.034Z,20.42
2018-02-16T06:01:25.662Z,20.43
2018-02-16T06:01:57.294Z,20.44
2018-02-16T06:02:28.925Z,20.42
2018-02-16T06:03:00.552Z,20.40
2018-02-16T06:03:32.183Z,20.40
2018-02-16T06:04:03.809Z,20.41
2018-02-16T06:04:35.429Z,20.38
2018-02-16T06:05:07.065Z,20.39
2018-02-16T06:05:38.695Z,20.40
2018-02-16T06:06:10.366Z,20.39
2018-02-16T06:06:41.997Z,20.42
2018-02-16T06:07:13.621Z,20.40
2018-02-16T06:07:45.254Z,20.41
2018-02-16T06:08:16.877Z,20.39
2018-02-16T06:08:48.516Z,20.40
2018-02-16T06:09:20.188Z,20.38
2018-02-16T06:09:51.812Z,20.39
2018-02-16T06:10:23.433Z,20.39
2018-02-16T06:10:55.058Z,20.40
2018-02-16T06:11:26.686Z,20.38
2018-02-16T06:11:58.313Z,20.39
2018-02-16T06:12:29.933Z,20.39
2018-02-16T06:13:01.562Z,20.39
2018-02-16T06:13:33.185Z,20.39
2018-02-16T06:14:04.813Z,20.40
2018-02-16T06:14:36.443Z,20.38
2018-02-16T06:15:08.065Z,20.39
2018-02-16T06:15:39.696Z,20.38
2018-02-16T06:16:11.330Z,20.39
2018-02-16T06:16:43.002Z,20.37
2018-02-16T06:17:14.673Z,20.36
2018-02-16T06:17:46.293Z,20.37
2018-02-16T06:18:17.914Z,20.38
2018-02-16T06:18:49.542Z,20.38
2018-02-16T06:19:21.165Z,20.40
2018-02-16T06:19:52.789Z,20.38
2018-02-16T06:20:24.418Z,20.37
2018-02-16T06:20:56.050Z,20.35
2018-02-16T06:21:27.682Z,20.36
2018-02-16T06:21:59.309Z,20.36
2018-02-16T06:22:30.982Z,20.38
2018-02-16T06:23:02.610Z,20.36
2018-02-16T06:23:34.233Z,20.35
2018-02-16T06:24:05.857Z,20.36
2018-02-16T06:24:37.485Z,20.35
2018-02-16T06:25:09.114Z,20.37
2018-02-16T06:25:40.742Z,20.37
2018-02-16T06:26:12.374Z,20.35
2018-02-16T06:26:43.997Z,20.34
2018-02-16T06:27:15.630Z,20.35
2018-02-16T06:27:47.258Z,20.34
2018-02-16T06:28:18.881Z,20.34
2018-02-16T06:28:50.554Z,20.34
2018-02-16T06:29:22.181Z,20.33
2018-02-16T06:29:53.817Z,20.35
2018-02-16T06:30:25.450Z,20.35
2018-02-16T06:30:57.124Z,20.35
2018-02-16T06:31:28.741Z,20.33
2018-02-16T06:32:00.361Z,20.33
2018-02-16T06:32:31.982Z,20.33
2018-02-16T06:33:03.605Z,20.35
2018-02-16T06:33:35.234Z,20.33
2018-02-16T06:34:06.902Z,20.32
2018-02-16T06:34:38.531Z,20.33
2018-02-16T06:35:10.157Z,20.32
2018-02-16T06:35:41.791Z,20.30
2018-02-16T06:36:13.422Z,20.32
2018-02-16T06:36:45.098Z,20.32
2018-02-16T06:37:16.730Z,20.33
2018-02-16T06:37:48.358Z,20.34
2018-02-16T06:38:19.990Z,20.31
2018-02-16T06:38:51.617Z,20.32
2018-02-16T06:39:23.242Z,20.31
2018-02-16T06:39:54.873Z,20.32
2018-02-16T06:40:26.498Z,20.33
2018-02-16T06:40:58.122Z,20.33
2018-02-16T06:41:29.748Z,20.34
2018-02-16T06:42:01.421Z,20.32
2018-02-16T06:42:33.041Z,20.31
2018-02-16T06:43:04.669Z,20.30
2018-02-16T06:43:36.303Z,20.31
2018-02-16T06:44:07.936Z,20.31
2018-02-16T06:44:39.569Z,20.33
2018-02-16T06:45:11.190Z,20.32
2018-02-16T06:45:43.833Z,20.33
2018-02-16T06:46:15.457Z,20.33
2018-02-16T06:46:47.089Z,20.34
2018-02-16T06:47:18.753Z,20.32